sensor_id;sensor_type;location;lat;lon;timestamp;P1;durP1;ratioP1;P2;durP2;ratioP2
24761;SDS011;12865;51.934;10.330;2023-03-23T00:02:30;4.00;;;1.27;;
24761;SDS011;12865;51.934;10.330;2023-03-23T00:05:20;1.65;;;1.30;;
24761;SDS011;12865;51.934;10.330;2023-03-23T00:08:07;2.53;;;1.13;;
24761;SDS011;12865;51.934;10.330;2023-03-23T00:10:53;2.97;;;1.17;;
24761;SDS011;12865;51.934;10.330;2023-03-23T00:13:42;1.50;;;1.00;;
24761;SDS011;12865;51.934;10.330;2023-03-23T00:16:30;3.25;;;1.30;;
24761;SDS011;12865;51.934;10.330;2023-03-23T00:19:22;1.33;;;1.20;;
24761;SDS011;12865;51.934;10.330;2023-03-23T00:22:08;3.17;;;1.40;;
24761;SDS011;12865;51.934;10.330;2023-03-23T00:24:54;2.78;;;1.10;;
24761;SDS011;12865;51.934;10.330;2023-03-23T00:27:40;1.63;;;1.25;;
24761;SDS011;12865;51.934;10.330;2023-03-23T00:30:25;1.67;;;1.27;;
24761;SDS011;12865;51.934;10.330;2023-03-23T00:33:11;1.73;;;1.23;;
24761;SDS011;12865;51.934;10.330;2023-03-23T00:35:57;4.35;;;1.38;;
24761;SDS011;12865;51.934;10.330;2023-03-23T00:38:43;1.55;;;1.20;;
24761;SDS011;12865;51.934;10.330;2023-03-23T00:41:29;2.47;;;1.25;;
24761;SDS011;12865;51.934;10.330;2023-03-23T00:44:16;2.33;;;1.10;;
24761;SDS011;12865;51.934;10.330;2023-03-23T00:47:02;3.60;;;1.13;;
24761;SDS011;12865;51.934;10.330;2023-03-23T00:49:48;1.35;;;1.20;;
24761;SDS011;12865;51.934;10.330;2023-03-23T00:52:37;1.40;;;1.20;;
24761;SDS011;12865;51.934;10.330;2023-03-23T00:55:23;1.77;;;1.20;;
24761;SDS011;12865;51.934;10.330;2023-03-23T00:58:11;2.63;;;1.50;;
24761;SDS011;12865;51.934;10.330;2023-03-23T01:00:58;3.95;;;1.40;;
24761;SDS011;12865;51.934;10.330;2023-03-23T01:03:43;3.10;;;1.00;;
24761;SDS011;12865;51.934;10.330;2023-03-23T01:06:31;3.90;;;1.45;;
24761;SDS011;12865;51.934;10.330;2023-03-23T01:09:20;4.47;;;1.58;;
24761;SDS011;12865;51.934;10.330;2023-03-23T01:12:08;3.40;;;1.80;;
24761;SDS011;12865;51.934;10.330;2023-03-23T01:14:54;5.32;;;1.80;;
24761;SDS011;12865;51.934;10.330;2023-03-23T01:17:41;3.97;;;1.45;;
24761;SDS011;12865;51.934;10.330;2023-03-23T01:20:27;4.55;;;1.63;;
24761;SDS011;12865;51.934;10.330;2023-03-23T01:23:16;4.05;;;1.65;;
24761;SDS011;12865;51.934;10.330;2023-03-23T01:26:12;2.15;;;1.70;;
24761;SDS011;12865;51.934;10.330;2023-03-23T01:28:59;3.88;;;1.63;;
24761;SDS011;12865;51.934;10.330;2023-03-23T01:31:45;3.95;;;1.80;;
24761;SDS011;12865;51.934;10.330;2023-03-23T01:34:31;2.63;;;1.85;;
24761;SDS011;12865;51.934;10.330;2023-03-23T01:37:16;2.90;;;1.73;;
24761;SDS011;12865;51.934;10.330;2023-03-23T01:40:03;4.38;;;1.92;;
24761;SDS011;12865;51.934;10.330;2023-03-23T01:42:49;3.03;;;2.03;;
24761;SDS011;12865;51.934;10.330;2023-03-23T01:45:35;2.33;;;1.77;;
24761;SDS011;12865;51.934;10.330;2023-03-23T01:51:09;2.35;;;1.85;;
24761;SDS011;12865;51.934;10.330;2023-03-23T01:54:01;2.70;;;1.75;;
24761;SDS011;12865;51.934;10.330;2023-03-23T01:56:53;5.50;;;2.20;;
24761;SDS011;12865;51.934;10.330;2023-03-23T01:59:45;3.20;;;1.40;;
24761;SDS011;12865;51.934;10.330;2023-03-23T02:02:35;3.03;;;1.67;;
24761;SDS011;12865;51.934;10.330;2023-03-23T02:05:34;4.22;;;2.00;;
24761;SDS011;12865;51.934;10.330;2023-03-23T02:08:23;3.05;;;1.98;;
24761;SDS011;12865;51.934;10.330;2023-03-23T02:11:21;4.57;;;1.90;;
24761;SDS011;12865;51.934;10.330;2023-03-23T02:14:07;2.28;;;1.83;;
24761;SDS011;12865;51.934;10.330;2023-03-23T02:17:02;2.13;;;1.55;;
24761;SDS011;12865;51.934;10.330;2023-03-23T02:20:17;3.97;;;2.00;;
24761;SDS011;12865;51.934;10.330;2023-03-23T02:23:17;3.42;;;1.98;;
24761;SDS011;12865;51.934;10.330;2023-03-23T02:26:14;2.28;;;2.08;;
24761;SDS011;12865;51.934;10.330;2023-03-23T02:38:39;3.17;;;1.80;;
24761;SDS011;12865;51.934;10.330;2023-03-23T02:41:34;2.97;;;2.08;;
24761;SDS011;12865;51.934;10.330;2023-03-23T02:44:26;2.78;;;1.98;;
24761;SDS011;12865;51.934;10.330;2023-03-23T02:47:19;4.15;;;2.25;;
24761;SDS011;12865;51.934;10.330;2023-03-23T02:50:09;2.45;;;1.60;;
24761;SDS011;12865;51.934;10.330;2023-03-23T02:52:58;3.38;;;1.83;;
24761;SDS011;12865;51.934;10.330;2023-03-23T02:55:45;2.63;;;1.60;;
24761;SDS011;12865;51.934;10.330;2023-03-23T02:58:32;2.65;;;1.77;;
24761;SDS011;12865;51.934;10.330;2023-03-23T03:04:22;2.80;;;1.63;;
24761;SDS011;12865;51.934;10.330;2023-03-23T03:07:23;3.17;;;1.58;;
24761;SDS011;12865;51.934;10.330;2023-03-23T03:10:18;4.25;;;1.70;;
24761;SDS011;12865;51.934;10.330;2023-03-23T03:16:30;3.70;;;1.70;;
24761;SDS011;12865;51.934;10.330;2023-03-23T03:19:26;5.97;;;2.20;;
24761;SDS011;12865;51.934;10.330;2023-03-23T03:22:16;2.85;;;1.63;;
24761;SDS011;12865;51.934;10.330;2023-03-23T03:27:52;2.88;;;1.65;;
24761;SDS011;12865;51.934;10.330;2023-03-23T03:30:37;3.88;;;2.00;;
24761;SDS011;12865;51.934;10.330;2023-03-23T03:33:25;3.33;;;1.85;;
24761;SDS011;12865;51.934;10.330;2023-03-23T03:36:15;2.92;;;1.80;;
24761;SDS011;12865;51.934;10.330;2023-03-23T03:39:13;3.40;;;1.67;;
24761;SDS011;12865;51.934;10.330;2023-03-23T03:42:01;4.55;;;2.05;;
24761;SDS011;12865;51.934;10.330;2023-03-23T03:44:46;3.58;;;2.25;;
24761;SDS011;12865;51.934;10.330;2023-03-23T03:47:32;2.40;;;2.10;;
24761;SDS011;12865;51.934;10.330;2023-03-23T03:50:18;3.30;;;2.10;;
24761;SDS011;12865;51.934;10.330;2023-03-23T03:53:04;2.67;;;1.90;;
24761;SDS011;12865;51.934;10.330;2023-03-23T03:55:51;2.85;;;1.55;;
24761;SDS011;12865;51.934;10.330;2023-03-23T04:01:27;2.58;;;1.75;;
24761;SDS011;12865;51.934;10.330;2023-03-23T04:04:13;2.80;;;1.90;;
24761;SDS011;12865;51.934;10.330;2023-03-23T04:06:59;3.13;;;1.75;;
24761;SDS011;12865;51.934;10.330;2023-03-23T04:09:46;3.30;;;2.05;;
24761;SDS011;12865;51.934;10.330;2023-03-23T04:12:32;6.20;;;1.95;;
24761;SDS011;12865;51.934;10.330;2023-03-23T04:15:18;3.47;;;1.98;;
24761;SDS011;12865;51.934;10.330;2023-03-23T04:18:04;3.72;;;2.10;;
24761;SDS011;12865;51.934;10.330;2023-03-23T04:20:50;2.20;;;1.92;;
24761;SDS011;12865;51.934;10.330;2023-03-23T04:23:36;2.63;;;2.13;;
24761;SDS011;12865;51.934;10.330;2023-03-23T04:26:23;2.58;;;1.95;;
24761;SDS011;12865;51.934;10.330;2023-03-23T04:29:09;3.63;;;2.20;;
24761;SDS011;12865;51.934;10.330;2023-03-23T04:31:55;3.67;;;1.85;;
24761;SDS011;12865;51.934;10.330;2023-03-23T04:34:41;3.50;;;2.17;;
24761;SDS011;12865;51.934;10.330;2023-03-23T04:37:28;2.17;;;2.00;;
24761;SDS011;12865;51.934;10.330;2023-03-23T04:40:19;2.28;;;1.90;;
24761;SDS011;12865;51.934;10.330;2023-03-23T04:43:06;2.80;;;2.10;;
24761;SDS011;12865;51.934;10.330;2023-03-23T04:45:52;2.40;;;2.10;;
24761;SDS011;12865;51.934;10.330;2023-03-23T04:51:27;5.88;;;2.72;;
24761;SDS011;12865;51.934;10.330;2023-03-23T04:54:14;4.82;;;2.45;;
24761;SDS011;12865;51.934;10.330;2023-03-23T04:57:00;3.63;;;2.15;;
24761;SDS011;12865;51.934;10.330;2023-03-23T04:59:45;3.53;;;2.90;;
24761;SDS011;12865;51.934;10.330;2023-03-23T05:02:31;2.53;;;2.13;;
24761;SDS011;12865;51.934;10.330;2023-03-23T05:05:19;2.25;;;2.05;;
24761;SDS011;12865;51.934;10.330;2023-03-23T05:08:05;5.50;;;2.30;;
24761;SDS011;12865;51.934;10.330;2023-03-23T05:10:52;4.47;;;2.40;;
24761;SDS011;12865;51.934;10.330;2023-03-23T05:13:39;3.35;;;2.20;;
24761;SDS011;12865;51.934;10.330;2023-03-23T05:16:24;4.55;;;2.28;;
24761;SDS011;12865;51.934;10.330;2023-03-23T05:19:10;2.50;;;2.10;;
24761;SDS011;12865;51.934;10.330;2023-03-23T05:21:56;3.38;;;2.15;;
24761;SDS011;12865;51.934;10.330;2023-03-23T05:24:47;2.78;;;2.10;;
24761;SDS011;12865;51.934;10.330;2023-03-23T05:27:37;2.47;;;2.28;;
24761;SDS011;12865;51.934;10.330;2023-03-23T05:30:23;3.08;;;2.00;;
24761;SDS011;12865;51.934;10.330;2023-03-23T05:33:08;2.40;;;1.80;;
24761;SDS011;12865;51.934;10.330;2023-03-23T05:35:54;2.83;;;2.13;;
24761;SDS011;12865;51.934;10.330;2023-03-23T05:38:40;3.38;;;1.90;;
24761;SDS011;12865;51.934;10.330;2023-03-23T05:41:30;2.22;;;1.80;;
24761;SDS011;12865;51.934;10.330;2023-03-23T05:44:16;2.90;;;1.90;;
24761;SDS011;12865;51.934;10.330;2023-03-23T05:47:02;2.40;;;2.17;;
24761;SDS011;12865;51.934;10.330;2023-03-23T05:49:48;3.40;;;2.10;;
24761;SDS011;12865;51.934;10.330;2023-03-23T05:52:34;1.80;;;1.70;;
24761;SDS011;12865;51.934;10.330;2023-03-23T05:55:21;1.60;;;1.50;;
24761;SDS011;12865;51.934;10.330;2023-03-23T05:58:07;1.90;;;1.75;;
24761;SDS011;12865;51.934;10.330;2023-03-23T06:00:53;3.60;;;1.90;;
24761;SDS011;12865;51.934;10.330;2023-03-23T06:03:38;1.73;;;1.50;;
24761;SDS011;12865;51.934;10.330;2023-03-23T06:06:25;4.40;;;1.90;;
24761;SDS011;12865;51.934;10.330;2023-03-23T06:09:11;1.92;;;1.70;;
24761;SDS011;12865;51.934;10.330;2023-03-23T06:11:57;2.03;;;1.92;;
24761;SDS011;12865;51.934;10.330;2023-03-23T06:14:42;3.05;;;1.50;;
24761;SDS011;12865;51.934;10.330;2023-03-23T06:17:28;3.35;;;2.20;;
24761;SDS011;12865;51.934;10.330;2023-03-23T06:20:14;3.13;;;1.50;;
24761;SDS011;12865;51.934;10.330;2023-03-23T06:23:00;2.55;;;1.73;;
24761;SDS011;12865;51.934;10.330;2023-03-23T06:25:46;1.83;;;1.52;;
24761;SDS011;12865;51.934;10.330;2023-03-23T06:28:32;1.83;;;1.60;;
24761;SDS011;12865;51.934;10.330;2023-03-23T06:31:19;2.30;;;1.50;;
24761;SDS011;12865;51.934;10.330;2023-03-23T06:34:06;3.67;;;1.77;;
24761;SDS011;12865;51.934;10.330;2023-03-23T06:36:52;2.13;;;1.67;;
24761;SDS011;12865;51.934;10.330;2023-03-23T06:39:38;2.00;;;1.80;;
24761;SDS011;12865;51.934;10.330;2023-03-23T06:42:24;1.75;;;1.60;;
24761;SDS011;12865;51.934;10.330;2023-03-23T06:45:10;1.42;;;1.33;;
24761;SDS011;12865;51.934;10.330;2023-03-23T06:47:56;2.33;;;1.75;;
24761;SDS011;12865;51.934;10.330;2023-03-23T06:50:42;2.55;;;1.42;;
24761;SDS011;12865;51.934;10.330;2023-03-23T06:53:29;2.38;;;1.60;;
24761;SDS011;12865;51.934;10.330;2023-03-23T06:56:16;1.52;;;1.42;;
24761;SDS011;12865;51.934;10.330;2023-03-23T06:59:02;2.60;;;1.40;;
24761;SDS011;12865;51.934;10.330;2023-03-23T07:01:48;2.22;;;1.30;;
24761;SDS011;12865;51.934;10.330;2023-03-23T07:04:34;1.90;;;1.40;;
24761;SDS011;12865;51.934;10.330;2023-03-23T07:07:20;3.58;;;1.70;;
24761;SDS011;12865;51.934;10.330;2023-03-23T07:10:07;1.77;;;1.40;;
24761;SDS011;12865;51.934;10.330;2023-03-23T07:12:54;2.22;;;1.45;;
24761;SDS011;12865;51.934;10.330;2023-03-23T07:15:40;1.83;;;1.52;;
24761;SDS011;12865;51.934;10.330;2023-03-23T07:18:26;2.08;;;1.58;;
24761;SDS011;12865;51.934;10.330;2023-03-23T07:21:12;3.92;;;1.88;;
24761;SDS011;12865;51.934;10.330;2023-03-23T07:23:58;1.60;;;1.50;;
24761;SDS011;12865;51.934;10.330;2023-03-23T07:26:43;1.73;;;1.50;;
24761;SDS011;12865;51.934;10.330;2023-03-23T07:29:30;2.40;;;1.70;;
24761;SDS011;12865;51.934;10.330;2023-03-23T07:32:16;2.03;;;1.50;;
24761;SDS011;12865;51.934;10.330;2023-03-23T07:35:02;1.98;;;1.83;;
24761;SDS011;12865;51.934;10.330;2023-03-23T07:37:49;2.75;;;1.60;;
24761;SDS011;12865;51.934;10.330;2023-03-23T07:40:35;2.53;;;1.60;;
24761;SDS011;12865;51.934;10.330;2023-03-23T07:43:21;1.45;;;1.20;;
24761;SDS011;12865;51.934;10.330;2023-03-23T07:46:07;2.42;;;1.55;;
24761;SDS011;12865;51.934;10.330;2023-03-23T07:48:53;1.90;;;1.58;;
24761;SDS011;12865;51.934;10.330;2023-03-23T07:51:39;2.58;;;1.67;;
24761;SDS011;12865;51.934;10.330;2023-03-23T07:54:25;1.63;;;1.48;;
24761;SDS011;12865;51.934;10.330;2023-03-23T07:57:10;2.65;;;1.50;;
24761;SDS011;12865;51.934;10.330;2023-03-23T07:59:57;1.48;;;1.33;;
24761;SDS011;12865;51.934;10.330;2023-03-23T08:02:43;1.40;;;1.30;;
24761;SDS011;12865;51.934;10.330;2023-03-23T08:05:29;4.03;;;1.40;;
24761;SDS011;12865;51.934;10.330;2023-03-23T08:08:14;1.48;;;1.38;;
24761;SDS011;12865;51.934;10.330;2023-03-23T08:11:00;1.42;;;1.33;;
24761;SDS011;12865;51.934;10.330;2023-03-23T08:13:46;2.70;;;1.95;;
24761;SDS011;12865;51.934;10.330;2023-03-23T08:16:32;2.00;;;1.50;;
24761;SDS011;12865;51.934;10.330;2023-03-23T08:19:18;3.22;;;1.40;;
24761;SDS011;12865;51.934;10.330;2023-03-23T08:22:04;3.33;;;1.83;;
24761;SDS011;12865;51.934;10.330;2023-03-23T08:24:50;1.73;;;1.40;;
24761;SDS011;12865;51.934;10.330;2023-03-23T08:27:36;2.20;;;1.50;;
24761;SDS011;12865;51.934;10.330;2023-03-23T08:30:22;2.80;;;1.50;;
24761;SDS011;12865;51.934;10.330;2023-03-23T08:33:09;1.40;;;1.30;;
24761;SDS011;12865;51.934;10.330;2023-03-23T08:35:56;1.40;;;1.30;;
24761;SDS011;12865;51.934;10.330;2023-03-23T08:38:42;2.45;;;1.55;;
24761;SDS011;12865;51.934;10.330;2023-03-23T08:41:29;1.95;;;1.50;;
24761;SDS011;12865;51.934;10.330;2023-03-23T08:44:15;3.38;;;1.60;;
24761;SDS011;12865;51.934;10.330;2023-03-23T08:47:02;1.80;;;1.70;;
24761;SDS011;12865;51.934;10.330;2023-03-23T08:49:49;1.92;;;1.48;;
24761;SDS011;12865;51.934;10.330;2023-03-23T08:52:38;1.63;;;1.40;;
24761;SDS011;12865;51.934;10.330;2023-03-23T08:55:24;2.85;;;2.03;;
24761;SDS011;12865;51.934;10.330;2023-03-23T08:58:11;1.65;;;1.50;;
24761;SDS011;12865;51.934;10.330;2023-03-23T09:00:57;3.28;;;1.55;;
24761;SDS011;12865;51.934;10.330;2023-03-23T09:03:43;1.80;;;1.45;;
24761;SDS011;12865;51.934;10.330;2023-03-23T09:06:29;3.45;;;1.52;;
24761;SDS011;12865;51.934;10.330;2023-03-23T09:09:15;3.10;;;1.70;;
24761;SDS011;12865;51.934;10.330;2023-03-23T09:12:01;1.98;;;1.45;;
24761;SDS011;12865;51.934;10.330;2023-03-23T09:14:46;1.92;;;1.42;;
24761;SDS011;12865;51.934;10.330;2023-03-23T09:17:32;1.77;;;1.60;;
24761;SDS011;12865;51.934;10.330;2023-03-23T09:20:19;3.38;;;1.80;;
24761;SDS011;12865;51.934;10.330;2023-03-23T09:23:07;2.25;;;1.58;;
24761;SDS011;12865;51.934;10.330;2023-03-23T09:25:53;2.80;;;1.85;;
24761;SDS011;12865;51.934;10.330;2023-03-23T09:28:39;2.45;;;1.73;;
24761;SDS011;12865;51.934;10.330;2023-03-23T09:31:25;2.20;;;1.85;;
24761;SDS011;12865;51.934;10.330;2023-03-23T09:34:13;5.55;;;1.88;;
24761;SDS011;12865;51.934;10.330;2023-03-23T09:37:00;2.70;;;1.40;;
24761;SDS011;12865;51.934;10.330;2023-03-23T09:39:49;3.35;;;1.90;;
24761;SDS011;12865;51.934;10.330;2023-03-23T09:42:38;3.88;;;1.77;;
24761;SDS011;12865;51.934;10.330;2023-03-23T09:49:01;4.57;;;1.70;;
24761;SDS011;12865;51.934;10.330;2023-03-23T09:51:57;2.72;;;1.60;;
24761;SDS011;12865;51.934;10.330;2023-03-23T09:54:49;2.45;;;1.40;;
24761;SDS011;12865;51.934;10.330;2023-03-23T10:00:47;4.80;;;1.55;;
24761;SDS011;12865;51.934;10.330;2023-03-23T10:03:40;3.28;;;1.60;;
24761;SDS011;12865;51.934;10.330;2023-03-23T10:06:28;2.42;;;1.52;;
24761;SDS011;12865;51.934;10.330;2023-03-23T10:09:15;6.65;;;2.00;;
24761;SDS011;12865;51.934;10.330;2023-03-23T10:12:07;5.18;;;2.35;;
24761;SDS011;12865;51.934;10.330;2023-03-23T10:18:10;4.28;;;1.80;;
24761;SDS011;12865;51.934;10.330;2023-03-23T10:21:01;2.80;;;1.58;;
24761;SDS011;12865;51.934;10.330;2023-03-23T10:23:53;3.95;;;1.42;;
24761;SDS011;12865;51.934;10.330;2023-03-23T10:26:47;2.42;;;1.73;;
24761;SDS011;12865;51.934;10.330;2023-03-23T10:29:43;4.35;;;1.70;;
24761;SDS011;12865;51.934;10.330;2023-03-23T10:32:39;6.13;;;1.92;;
24761;SDS011;12865;51.934;10.330;2023-03-23T10:35:30;4.13;;;1.58;;
24761;SDS011;12865;51.934;10.330;2023-03-23T10:38:25;3.55;;;1.55;;
24761;SDS011;12865;51.934;10.330;2023-03-23T10:41:16;3.85;;;1.70;;
24761;SDS011;12865;51.934;10.330;2023-03-23T10:44:24;6.60;;;1.80;;
24761;SDS011;12865;51.934;10.330;2023-03-23T10:47:12;2.38;;;1.38;;
24761;SDS011;12865;51.934;10.330;2023-03-23T10:50:00;2.58;;;1.60;;
24761;SDS011;12865;51.934;10.330;2023-03-23T10:52:51;2.53;;;1.60;;
24761;SDS011;12865;51.934;10.330;2023-03-23T10:55:39;3.55;;;1.30;;
24761;SDS011;12865;51.934;10.330;2023-03-23T10:58:30;3.35;;;1.83;;
24761;SDS011;12865;51.934;10.330;2023-03-23T11:01:19;3.00;;;1.60;;
24761;SDS011;12865;51.934;10.330;2023-03-23T11:04:10;3.55;;;1.50;;
24761;SDS011;12865;51.934;10.330;2023-03-23T11:06:59;3.65;;;1.50;;
24761;SDS011;12865;51.934;10.330;2023-03-23T11:09:52;2.55;;;1.50;;
24761;SDS011;12865;51.934;10.330;2023-03-23T11:12:39;2.05;;;1.35;;
24761;SDS011;12865;51.934;10.330;2023-03-23T11:15:34;3.13;;;1.75;;
24761;SDS011;12865;51.934;10.330;2023-03-23T11:18:24;3.20;;;1.85;;
24761;SDS011;12865;51.934;10.330;2023-03-23T11:21:13;3.40;;;1.55;;
24761;SDS011;12865;51.934;10.330;2023-03-23T11:24:00;2.70;;;1.88;;
24761;SDS011;12865;51.934;10.330;2023-03-23T11:26:46;4.30;;;1.40;;
24761;SDS011;12865;51.934;10.330;2023-03-23T11:29:33;2.38;;;1.80;;
24761;SDS011;12865;51.934;10.330;2023-03-23T11:32:24;3.13;;;2.03;;
24761;SDS011;12865;51.934;10.330;2023-03-23T11:35:20;3.60;;;2.20;;
24761;SDS011;12865;51.934;10.330;2023-03-23T11:38:11;2.55;;;1.88;;
24761;SDS011;12865;51.934;10.330;2023-03-23T11:41:08;3.85;;;1.67;;
24761;SDS011;12865;51.934;10.330;2023-03-23T11:43:56;2.47;;;1.52;;
24761;SDS011;12865;51.934;10.330;2023-03-23T11:49:39;4.55;;;2.22;;
24761;SDS011;12865;51.934;10.330;2023-03-23T11:55:32;3.67;;;1.63;;
24761;SDS011;12865;51.934;10.330;2023-03-23T12:00:51;2.80;;;1.55;;
24761;SDS011;12865;51.934;10.330;2023-03-23T12:03:46;4.65;;;2.05;;
24761;SDS011;12865;51.934;10.330;2023-03-23T12:19:27;4.22;;;1.50;;
24761;SDS011;12865;51.934;10.330;2023-03-23T12:37:12;5.22;;;1.95;;
24761;SDS011;12865;51.934;10.330;2023-03-23T12:58:15;5.78;;;1.75;;
24761;SDS011;12865;51.934;10.330;2023-03-23T13:01:07;6.80;;;1.70;;
24761;SDS011;12865;51.934;10.330;2023-03-23T13:03:59;3.45;;;1.73;;
24761;SDS011;12865;51.934;10.330;2023-03-23T13:06:50;3.60;;;1.50;;
24761;SDS011;12865;51.934;10.330;2023-03-23T13:09:48;3.88;;;1.45;;
24761;SDS011;12865;51.934;10.330;2023-03-23T13:12:37;5.20;;;2.00;;
24761;SDS011;12865;51.934;10.330;2023-03-23T13:15:40;5.90;;;1.60;;
24761;SDS011;12865;51.934;10.330;2023-03-23T13:19:03;2.38;;;1.55;;
24761;SDS011;12865;51.934;10.330;2023-03-23T13:22:00;3.45;;;1.40;;
24761;SDS011;12865;51.934;10.330;2023-03-23T13:24:52;3.22;;;1.40;;
24761;SDS011;12865;51.934;10.330;2023-03-23T13:27:41;4.40;;;1.70;;
24761;SDS011;12865;51.934;10.330;2023-03-23T13:30:28;3.97;;;1.20;;
24761;SDS011;12865;51.934;10.330;2023-03-23T13:33:14;4.03;;;1.23;;
24761;SDS011;12865;51.934;10.330;2023-03-23T13:36:10;4.13;;;1.17;;
24761;SDS011;12865;51.934;10.330;2023-03-23T13:38:59;2.45;;;1.30;;
24761;SDS011;12865;51.934;10.330;2023-03-23T13:41:47;1.88;;;1.20;;
24761;SDS011;12865;51.934;10.330;2023-03-23T13:44:54;2.90;;;1.33;;
24761;SDS011;12865;51.934;10.330;2023-03-23T13:48:04;2.28;;;1.13;;
24761;SDS011;12865;51.934;10.330;2023-03-23T13:51:01;1.67;;;1.20;;
24761;SDS011;12865;51.934;10.330;2023-03-23T13:53:48;2.17;;;1.25;;
24761;SDS011;12865;51.934;10.330;2023-03-23T13:56:40;1.85;;;1.02;;
24761;SDS011;12865;51.934;10.330;2023-03-23T13:59:48;3.92;;;1.52;;
24761;SDS011;12865;51.934;10.330;2023-03-23T14:02:40;2.60;;;1.30;;
24761;SDS011;12865;51.934;10.330;2023-03-23T14:05:44;2.50;;;1.30;;
24761;SDS011;12865;51.934;10.330;2023-03-23T14:14:23;3.65;;;1.17;;
24761;SDS011;12865;51.934;10.330;2023-03-23T14:17:14;2.45;;;0.85;;
24761;SDS011;12865;51.934;10.330;2023-03-23T14:20:04;3.08;;;1.10;;
24761;SDS011;12865;51.934;10.330;2023-03-23T14:25:41;1.95;;;1.10;;
24761;SDS011;12865;51.934;10.330;2023-03-23T14:28:27;1.42;;;1.05;;
24761;SDS011;12865;51.934;10.330;2023-03-23T14:31:20;1.30;;;0.77;;
24761;SDS011;12865;51.934;10.330;2023-03-23T14:34:21;1.73;;;1.20;;
24761;SDS011;12865;51.934;10.330;2023-03-23T14:37:11;0.85;;;0.82;;
24761;SDS011;12865;51.934;10.330;2023-03-23T14:39:58;1.23;;;0.80;;
24761;SDS011;12865;51.934;10.330;2023-03-23T14:42:45;1.17;;;1.08;;
24761;SDS011;12865;51.934;10.330;2023-03-23T14:45:32;1.83;;;0.80;;
24761;SDS011;12865;51.934;10.330;2023-03-23T14:48:19;3.08;;;0.85;;
24761;SDS011;12865;51.934;10.330;2023-03-23T14:51:06;1.00;;;0.80;;
24761;SDS011;12865;51.934;10.330;2023-03-23T14:53:53;1.05;;;1.00;;
24761;SDS011;12865;51.934;10.330;2023-03-23T14:56:39;1.95;;;0.98;;
24761;SDS011;12865;51.934;10.330;2023-03-23T14:59:25;1.58;;;0.80;;
24761;SDS011;12865;51.934;10.330;2023-03-23T15:02:12;2.08;;;0.93;;
24761;SDS011;12865;51.934;10.330;2023-03-23T15:05:26;0.93;;;0.80;;
24761;SDS011;12865;51.934;10.330;2023-03-23T15:08:29;2.58;;;1.30;;
24761;SDS011;12865;51.934;10.330;2023-03-23T15:14:16;3.30;;;1.80;;
24761;SDS011;12865;51.934;10.330;2023-03-23T15:17:05;4.88;;;2.10;;
24761;SDS011;12865;51.934;10.330;2023-03-23T15:19:56;5.28;;;2.33;;
24761;SDS011;12865;51.934;10.330;2023-03-23T15:22:46;7.03;;;2.15;;
24761;SDS011;12865;51.934;10.330;2023-03-23T15:25:34;5.90;;;1.92;;
24761;SDS011;12865;51.934;10.330;2023-03-23T15:28:28;4.57;;;2.30;;
24761;SDS011;12865;51.934;10.330;2023-03-23T15:31:17;5.60;;;2.67;;
24761;SDS011;12865;51.934;10.330;2023-03-23T15:34:03;8.02;;;2.40;;
24761;SDS011;12865;51.934;10.330;2023-03-23T15:39:41;5.35;;;2.30;;
24761;SDS011;12865;51.934;10.330;2023-03-23T15:42:29;7.43;;;2.10;;
24761;SDS011;12865;51.934;10.330;2023-03-23T15:48:12;4.72;;;2.78;;
24761;SDS011;12865;51.934;10.330;2023-03-23T15:50:58;6.97;;;3.20;;
24761;SDS011;12865;51.934;10.330;2023-03-23T15:53:44;5.32;;;2.35;;
24761;SDS011;12865;51.934;10.330;2023-03-23T15:56:30;2.85;;;1.80;;
24761;SDS011;12865;51.934;10.330;2023-03-23T15:59:16;2.70;;;2.00;;
24761;SDS011;12865;51.934;10.330;2023-03-23T16:02:02;5.38;;;1.88;;
24761;SDS011;12865;51.934;10.330;2023-03-23T16:04:49;4.07;;;2.13;;
24761;SDS011;12865;51.934;10.330;2023-03-23T16:07:35;4.57;;;1.95;;
24761;SDS011;12865;51.934;10.330;2023-03-23T16:10:23;3.10;;;1.98;;
24761;SDS011;12865;51.934;10.330;2023-03-23T16:13:09;5.18;;;2.10;;
24761;SDS011;12865;51.934;10.330;2023-03-23T16:15:55;5.40;;;2.45;;
24761;SDS011;12865;51.934;10.330;2023-03-23T16:18:41;3.97;;;2.67;;
24761;SDS011;12865;51.934;10.330;2023-03-23T16:21:27;4.07;;;2.45;;
24761;SDS011;12865;51.934;10.330;2023-03-23T16:24:12;4.25;;;2.50;;
24761;SDS011;12865;51.934;10.330;2023-03-23T16:26:58;3.90;;;2.17;;
24761;SDS011;12865;51.934;10.330;2023-03-23T16:29:44;3.45;;;2.38;;
24761;SDS011;12865;51.934;10.330;2023-03-23T16:32:29;4.65;;;2.58;;
24761;SDS011;12865;51.934;10.330;2023-03-23T16:35:15;5.05;;;1.88;;
24761;SDS011;12865;51.934;10.330;2023-03-23T16:38:02;4.32;;;1.95;;
24761;SDS011;12865;51.934;10.330;2023-03-23T16:40:48;4.47;;;2.60;;
24761;SDS011;12865;51.934;10.330;2023-03-23T16:43:33;5.93;;;2.60;;
24761;SDS011;12865;51.934;10.330;2023-03-23T16:46:19;4.05;;;2.78;;
24761;SDS011;12865;51.934;10.330;2023-03-23T16:49:05;4.88;;;2.30;;
24761;SDS011;12865;51.934;10.330;2023-03-23T16:51:51;5.60;;;2.60;;
24761;SDS011;12865;51.934;10.330;2023-03-23T16:54:36;2.97;;;2.08;;
24761;SDS011;12865;51.934;10.330;2023-03-23T16:57:22;4.05;;;1.90;;
24761;SDS011;12865;51.934;10.330;2023-03-23T17:00:10;5.78;;;2.47;;
24761;SDS011;12865;51.934;10.330;2023-03-23T17:02:59;4.18;;;2.80;;
24761;SDS011;12865;51.934;10.330;2023-03-23T17:05:46;5.90;;;2.67;;
24761;SDS011;12865;51.934;10.330;2023-03-23T17:08:33;2.92;;;2.70;;
24761;SDS011;12865;51.934;10.330;2023-03-23T17:11:19;2.60;;;2.40;;
24761;SDS011;12865;51.934;10.330;2023-03-23T17:14:05;5.22;;;2.03;;
24761;SDS011;12865;51.934;10.330;2023-03-23T17:16:51;1.60;;;1.50;;
24761;SDS011;12865;51.934;10.330;2023-03-23T17:19:36;3.45;;;1.60;;
24761;SDS011;12865;51.934;10.330;2023-03-23T17:22:22;2.85;;;1.45;;
24761;SDS011;12865;51.934;10.330;2023-03-23T17:25:09;2.97;;;1.60;;
24761;SDS011;12865;51.934;10.330;2023-03-23T17:27:55;3.35;;;1.70;;
24761;SDS011;12865;51.934;10.330;2023-03-23T17:30:41;2.30;;;2.08;;
24761;SDS011;12865;51.934;10.330;2023-03-23T17:33:28;1.85;;;1.75;;
24761;SDS011;12865;51.934;10.330;2023-03-23T17:36:14;2.65;;;1.70;;
24761;SDS011;12865;51.934;10.330;2023-03-23T17:38:59;4.18;;;2.22;;
24761;SDS011;12865;51.934;10.330;2023-03-23T17:41:45;4.60;;;2.20;;
24761;SDS011;12865;51.934;10.330;2023-03-23T17:44:31;3.67;;;2.03;;
24761;SDS011;12865;51.934;10.330;2023-03-23T17:47:17;2.42;;;1.63;;
24761;SDS011;12865;51.934;10.330;2023-03-23T17:50:03;2.05;;;1.77;;
24761;SDS011;12865;51.934;10.330;2023-03-23T17:52:50;2.85;;;2.00;;
24761;SDS011;12865;51.934;10.330;2023-03-23T17:55:36;2.20;;;2.00;;
24761;SDS011;12865;51.934;10.330;2023-03-23T18:00:52;3.00;;;2.65;;
24761;SDS011;12865;51.934;10.330;2023-03-23T18:03:38;2.70;;;2.20;;
24761;SDS011;12865;51.934;10.330;2023-03-23T18:06:24;2.67;;;2.28;;
24761;SDS011;12865;51.934;10.330;2023-03-23T18:09:10;2.97;;;2.60;;
24761;SDS011;12865;51.934;10.330;2023-03-23T18:11:55;3.88;;;3.05;;
24761;SDS011;12865;51.934;10.330;2023-03-23T18:14:41;3.35;;;2.10;;
24761;SDS011;12865;51.934;10.330;2023-03-23T18:17:28;5.65;;;3.00;;
24761;SDS011;12865;51.934;10.330;2023-03-23T18:20:13;2.53;;;2.35;;
24761;SDS011;12865;51.934;10.330;2023-03-23T18:22:59;2.70;;;2.45;;
24761;SDS011;12865;51.934;10.330;2023-03-23T18:25:45;3.20;;;2.40;;
24761;SDS011;12865;51.934;10.330;2023-03-23T18:28:30;3.58;;;2.20;;
24761;SDS011;12865;51.934;10.330;2023-03-23T18:31:17;5.07;;;2.55;;